x

8452951 - Potter Cove, Prudence Island, Ri (ptcr1) Weather Station

7:30am - Tue 2nd Jun 2015 All times are EDT. -4 hours from GMT.

  • Wind
    20mph, 26mph gusts
  • 空気 Temp 50°f
  • Sea Pressure 1020.5mb
  • 8452951 - Potter Cove, Prudence Island, Ri
  • 8452951 - Potter Cove, Prudence Island, Ri

More Historic Weather Station data

Upgrade to MSW Pro to gain access to the past 30 days of data for over 8000 Wavebouys and Weather Stations around the globe.

Join Pro

Comparision Forecast

View Surf forecast
   
Tue 06/02 7:30am 20 26 mph 1020.5mb 50f
7:24am 16 21 mph 1020.9mb 50f
7:18am 15 21 mph 1021mb 50f
7:12am 17 24 mph 1021mb 50f
7:06am 16 22 mph 1021.2mb 50f
7:00am 15 21 mph 1021.3mb 50f
6:54am 16 22 mph 1021.3mb 50f
6:48am 16 20 mph 1021.2mb 49f
6:42am 16 22 mph 1021.2mb 49f
6:36am 15 20 mph 1021.1mb 50f
6:30am 15 21 mph 1021.1mb 50f
6:24am 15 22 mph 1021.2mb 50f
6:18am 15 21 mph 1021.1mb 49f
6:12am 13 20 mph 1021mb 50f
6:06am 13 17 mph 1021mb 49f
6:00am 14 20 mph 1020.8mb 49f
5:54am 15 20 mph 1020.8mb 49f
5:48am 16 21 mph 1020.5mb 50f
5:42am 14 18 mph 1020.8mb 50f
5:36am 16 23 mph 1020.6mb 49f
5:30am 15 21 mph 1020.8mb 49f
5:24am 15 22 mph 1020.8mb 49f
5:18am 16 22 mph 1020.3mb 49f
5:12am 15 20 mph 1020.4mb 50f
5:06am 16 24 mph 1020.4mb 50f
5:00am 15 20 mph - 50f
4:54am 15 20 mph - 50f
4:48am 16 22 mph 1020.6mb 49f
4:42am 15 20 mph 1020.6mb 50f
4:36am 16 21 mph 1020.6mb 49f
4:30am 16 21 mph 1020.4mb 49f
4:24am 17 21 mph 1020.5mb 50f
4:18am 16 21 mph 1020.6mb 50f
4:12am 16 22 mph 1020.6mb 50f
4:06am 17 23 mph 1020.7mb 50f
4:00am 14 23 mph 1021mb 50f
3:54am 14 20 mph 1021mb 50f
3:48am 16 23 mph 1021mb 50f
3:42am 16 22 mph 1021mb 50f
3:36am 15 21 mph 1021.2mb 50f
3:30am 15 20 mph 1021.2mb 50f
3:24am 16 23 mph 1021.2mb 50f
3:18am  -  mph 1021.3mb 50f
3:12am  -  mph 1021.3mb 50f
3:06am  -  mph 1021.3mb 50f
3:00am 16 21 mph 1021.4mb 50f
2:54am 16 21 mph 1021.4mb 50f
2:48am  -  mph 1021.5mb -
2:42am 15 21 mph 1021.4mb -
2:36am 16 22 mph 1021.4mb -
2:30am 16 21 mph 1021.6mb -
2:24am  -  mph 1021.6mb -
2:18am  -  mph - 50f
2:12am  -  mph - 50f
2:06am  -  mph - 50f
2:00am  -  mph - 50f
1:54am  -  mph - 50f
1:48am 14 18 mph 1021.8mb 50f
1:42am 16 22 mph 1021.8mb 50f
1:36am 15 18 mph 1021.9mb 50f
1:30am 15 21 mph 1021.8mb 50f
1:24am 16 21 mph 1021.9mb 50f
1:18am 16 21 mph 1022mb 50f
1:12am 16 22 mph 1022mb 50f
1:06am 15 22 mph 1022.2mb 50f
1:00am 16 20 mph 1022.1mb 50f
12:54am 13 18 mph 1022.3mb 50f
12:48am 15 20 mph 1022.2mb 50f
12:42am 15 21 mph 1022.3mb 50f
12:36am 14 20 mph 1022.3mb 50f
12:30am 16 20 mph 1022.3mb 50f
12:24am 17 24 mph 1022.2mb 50f
12:18am 15 21 mph 1022.2mb 50f
12:12am 15 21 mph 1022.5mb 50f
12:06am 16 23 mph 1022.4mb 50f
12:00am 15 21 mph 1022.6mb 50f
Mon 06/01 11:54pm 15 20 mph 1022.5mb 50f
11:48pm 17 22 mph 1022.5mb 50f
11:42pm 15 20 mph 1022.5mb 49f
11:36pm 16 23 mph 1022.6mb 50f
11:30pm 15 20 mph 1022.6mb 50f
11:24pm 16 22 mph 1022.5mb 50f
11:18pm 17 22 mph 1022.4mb 50f
11:12pm 18 24 mph 1022.6mb 50f
11:06pm 18 24 mph 1022.8mb 50f
11:00pm 17 23 mph 1022.8mb 50f
10:54pm 16 22 mph 1022.8mb 50f
10:48pm 15 20 mph 1022.9mb 50f
10:42pm 15 21 mph 1023mb 50f
10:36pm 14 17 mph 1023mb 50f
10:30pm 14 20 mph 1023.1mb 50f
10:24pm 17 23 mph 1023mb 50f
10:18pm 16 22 mph 1023mb 50f
10:12pm 13 18 mph 1023.4mb 50f
10:06pm 11 16 mph 1023.6mb 50f
10:00pm 16 21 mph 1023.1mb 51f
9:54pm 16 23 mph 1023.2mb 50f
9:48pm 15 22 mph 1023.2mb 50f
9:42pm 17 23 mph 1023.1mb 50f
9:36pm 15 20 mph 1023.2mb 50f
9:30pm 16 21 mph 1023.1mb 50f
9:24pm 15 20 mph 1023.1mb 50f
9:18pm 16 23 mph 1023.1mb 50f
9:12pm 17 24 mph 1023mb 50f
9:06pm 16 23 mph 1023mb 51f
9:00pm 16 21 mph 1022.9mb 51f
8:54pm 16 22 mph 1023mb 50f
8:48pm 17 25 mph 1023mb 50f
8:42pm 16 21 mph 1023mb 50f
8:36pm 18 24 mph 1023mb 50f
8:30pm 17 23 mph 1022.9mb 50f
8:24pm 18 23 mph 1022.8mb 50f
8:18pm 18 24 mph 1023mb 50f
8:12pm 17 23 mph 1022.9mb 50f
8:06pm 16 21 mph 1022.9mb 51f
8:00pm 17 22 mph 1022.8mb 50f
7:54pm 17 23 mph 1022.9mb 50f
7:48pm 17 23 mph 1023mb 50f
7:42pm 17 21 mph 1023.1mb 50f
7:36pm 17 23 mph 1023mb 51f
7:30pm 18 23 mph 1023mb 51f
7:24pm 18 24 mph 1023.1mb 50f
7:18pm 17 24 mph 1023.1mb 51f
7:12pm 17 23 mph 1023.1mb 50f
7:06pm 18 24 mph 1023.2mb 50f
7:00pm 15 21 mph 1023.2mb 50f
6:54pm 15 21 mph 1023.2mb 50f
6:48pm 16 21 mph 1023.2mb 50f
6:42pm 17 23 mph 1023mb 50f
6:36pm 18 24 mph 1023mb 50f
6:30pm 17 23 mph 1023mb 50f
6:24pm 17 23 mph 1023.1mb 50f
6:18pm 17 23 mph 1023.1mb 50f
6:12pm 18 24 mph 1022.9mb 51f
6:06pm 18 23 mph 1022.9mb 51f
6:00pm 18 23 mph 1022.8mb 50f
5:54pm 17 23 mph 1022.9mb 51f
5:48pm 18 25 mph 1022.7mb 51f
5:42pm 16 21 mph 1022.8mb 51f
5:36pm 17 23 mph 1022.9mb 51f
5:30pm 21 26 mph 1022.7mb 51f
5:24pm 20 25 mph 1022.7mb 51f
5:18pm 20 25 mph 1022.8mb 51f
5:12pm 18 25 mph 1022.8mb 51f
5:06pm 17 25 mph 1022.9mb 52f
5:00pm 18 26 mph 1023mb 51f
4:54pm 18 24 mph 1023mb 51f
4:48pm 18 24 mph 1022.9mb 51f
4:42pm 18 25 mph 1022.8mb 51f
4:36pm 18 24 mph 1022.9mb 51f
4:30pm 20 23 mph 1022.9mb 51f
4:24pm 21 28 mph 1022.8mb 52f
4:18pm 21 28 mph 1022.9mb 52f
4:12pm 17 22 mph 1023mb 52f
4:06pm 20 25 mph 1023mb 52f
4:00pm 22 26 mph 1023mb 52f
3:54pm 21 26 mph 1023mb 52f
3:48pm 20 25 mph 1023mb 52f
3:42pm 18 25 mph 1023mb 53f
3:36pm 20 25 mph 1023mb 53f
3:30pm 16 23 mph 1022.9mb 53f
3:24pm 17 23 mph 1022.9mb 53f
3:18pm 17 22 mph 1022.9mb 53f
3:12pm 18 24 mph 1022.9mb 53f
3:06pm 20 25 mph 1022.9mb 53f
3:00pm 18 25 mph 1023mb 53f
2:54pm 21 26 mph 1023mb 53f
2:48pm 20 26 mph 1023mb 53f
2:42pm 16 22 mph 1023mb 53f
2:36pm 17 23 mph 1023mb 53f
2:30pm 18 24 mph 1023mb 53f
2:24pm 18 25 mph 1023mb 53f
2:18pm 22 26 mph 1023mb 53f
2:12pm 18 24 mph 1022.9mb 53f
2:06pm 17 25 mph 1023mb 53f
2:00pm 16 22 mph 1023mb 53f
1:54pm 18 24 mph 1023mb 53f
1:48pm 17 23 mph 1023mb 53f
1:42pm 16 21 mph 1023.1mb 53f
1:36pm 16 22 mph 1023mb 54f
1:30pm 16 22 mph 1022.9mb 54f
1:24pm 16 23 mph 1023.1mb 54f
1:18pm 16 22 mph 1023.1mb 53f
1:12pm 17 22 mph 1023mb 53f
1:06pm 15 20 mph 1023.1mb 54f
1:00pm 15 21 mph 1023.1mb 53f
12:54pm 14 20 mph 1023.1mb 53f
12:48pm 15 20 mph 1023.2mb 54f
12:42pm 15 20 mph 1023.2mb 53f
12:36pm 16 22 mph 1023.2mb 53f
12:30pm 16 23 mph 1023.1mb 53f
12:24pm 16 21 mph 1023.1mb 53f
12:18pm 15 20 mph 1023.2mb 53f
12:12pm 14 17 mph 1023.3mb 53f
12:06pm 13 17 mph 1023.3mb 53f
12:00pm 11 15 mph 1023.4mb 53f
11:54am 13 18 mph 1023.2mb 53f
11:48am 16 21 mph 1023.2mb 53f
11:42am 15 18 mph 1023.1mb 53f
11:36am 13 18 mph 1023.2mb 53f
11:30am 14 18 mph 1023.1mb 53f
11:24am 13 17 mph 1023.3mb 53f
11:18am 11 15 mph 1023.3mb 53f
11:12am 15 18 mph 1023.2mb 53f
11:06am 15 20 mph 1023.2mb 53f
11:00am 14 18 mph 1023.2mb 53f
10:54am 13 18 mph 1023.2mb 53f
10:48am 13 17 mph 1023.2mb 53f
10:42am 14 17 mph 1023.1mb 53f
10:36am 14 18 mph 1023.1mb 53f
10:30am 13 17 mph 1023.1mb 53f
10:24am 14 17 mph 1023.2mb 53f
10:18am 14 17 mph 1023.1mb 52f
10:12am 14 18 mph 1023.2mb 52f
10:06am 13 16 mph 1023.2mb 52f
10:00am 11 18 mph 1023.1mb 53f
9:54am 14 18 mph 1023.1mb 53f
9:48am 13 16 mph 1023.2mb 53f
9:42am 13 20 mph 1023.1mb 52f
9:36am 13 17 mph 1023mb 53f
9:30am 14 21 mph 1023mb 52f
9:24am 11 16 mph 1023mb 52f
9:18am 13 18 mph 1023.1mb 52f
9:12am 13 17 mph 1023.1mb 52f
9:06am 13 17 mph 1023.2mb 52f
9:00am 14 18 mph 1023.1mb 52f
8:54am 13 17 mph 1023.3mb 52f
8:48am 11 16 mph 1023.3mb 52f
8:42am 13 16 mph 1023.3mb 52f
8:36am 14 18 mph 1023.4mb 52f
8:30am 15 20 mph 1023.4mb 52f
8:24am 14 18 mph 1023.5mb 52f
8:18am 14 18 mph 1023.5mb 52f
8:12am 15 18 mph 1023.5mb 52f
8:06am 14 18 mph 1023.5mb 52f
8:00am 16 21 mph 1023.6mb 52f
7:54am 14 20 mph 1023.6mb 52f
7:48am 14 20 mph 1023.5mb 52f
7:42am 13 17 mph 1023.6mb 51f
7:36am 14 18 mph 1023.6mb 51f
7:30am 10 14 mph 1023.7mb 51f
7:24am 11 15 mph 1023.6mb 52f
7:18am 14 18 mph 1023.5mb 51f
7:12am 15 20 mph 1023.3mb 52f
7:06am 15 18 mph 1023.3mb 51f
7:00am 14 17 mph 1023.3mb 51f
6:54am 14 21 mph 1023.2mb 51f
6:48am 13 18 mph 1023.1mb 52f
5:54am 14 18 mph 1022.7mb 52f
5:48am 16 21 mph 1022.7mb 51f
4:00am 11 17 mph 1022.6mb -
3:54am 13 16 mph 1022.6mb -
3:48am 15 18 mph 1022.7mb -
3:42am 15 22 mph 1022.7mb -
3:36am 15 22 mph 1022.7mb -
3:30am  -  mph 1022.7mb -
3:24am  -  mph 1022.7mb -
3:18am 14 18 mph 1023mb 51f
3:12am 14 21 mph 1023mb 51f
3:06am 15 21 mph 1023mb 51f
3:00am 15 21 mph 1023.1mb 51f
2:54am 14 18 mph 1023.1mb 51f
2:48am  -  mph 1023.1mb -
2:42am  -  mph 1023.1mb -
2:36am  -  mph 1023.1mb -
2:30am  -  mph - 51f
2:24am  -  mph - 51f
2:18am  -  mph - 51f
2:12am  -  mph - 51f
2:06am  -  mph - 51f
2:00am 14 20 mph - -
1:54am 13 21 mph - -
1:48am 15 21 mph 1023.4mb 51f
1:42am 16 22 mph 1023.5mb 51f
1:36am 16 22 mph 1023.3mb 51f
1:30am 15 22 mph 1023.4mb 51f
1:24am 16 22 mph 1023.5mb 51f
1:18am 16 22 mph 1023.6mb 51f
1:12am 14 20 mph 1023.7mb 51f
1:06am 17 25 mph 1023.6mb 51f
1:00am 14 18 mph 1023.6mb 51f
12:54am 14 20 mph 1023.8mb 51f
12:48am 14 18 mph 1023.9mb 51f
12:42am 13 20 mph 1023.9mb 51f
12:36am 14 18 mph 1023.8mb 52f
12:30am 16 23 mph 1023.9mb 52f
12:24am 16 23 mph 1023.9mb 52f
12:18am 17 23 mph 1024mb 51f
12:12am 15 21 mph 1024.2mb 51f
12:06am 16 22 mph 1024.3mb 52f
12:00am 15 22 mph 1024.3mb 51f
Sun 05/31 11:54pm 15 21 mph 1024.4mb 52f
11:48pm 17 23 mph 1024.4mb 51f
11:42pm 16 21 mph 1024.3mb 51f
11:36pm 15 21 mph 1024.2mb 51f
11:30pm 17 22 mph 1024mb 51f
11:24pm 16 22 mph 1024.2mb 51f
11:18pm 16 22 mph 1024.3mb 51f
11:12pm 14 18 mph 1024.4mb 51f
11:06pm 14 20 mph 1024.5mb 52f
11:00pm 16 21 mph 1024.4mb 51f
10:54pm 16 21 mph 1024.4mb 51f
10:48pm 17 24 mph 1024.4mb 52f
10:42pm 15 20 mph 1024.4mb 52f
10:36pm 15 22 mph 1024.4mb 52f
10:30pm 15 23 mph 1024.3mb 52f
10:24pm 15 21 mph 1024.3mb 52f
10:18pm 14 20 mph 1024.4mb 52f
10:12pm 15 20 mph 1024.2mb 52f
10:06pm 15 20 mph 1024.1mb 52f
10:00pm 15 23 mph 1024.1mb 52f
9:54pm 16 23 mph 1024.2mb 52f
9:48pm 16 21 mph 1024.1mb 52f
9:42pm 17 24 mph 1024.1mb 52f
9:36pm 15 20 mph 1024.2mb 52f
9:30pm 17 23 mph 1024.2mb 52f
9:24pm 15 22 mph 1024.1mb 52f
9:18pm 16 21 mph 1023.9mb 52f
9:12pm 17 26 mph 1023.6mb 52f
9:06pm 17 25 mph 1023.5mb 52f
9:00pm 21 29 mph 1023.3mb 52f
8:54pm 20 25 mph 1023.5mb 52f
8:48pm 20 25 mph 1023.3mb 53f
8:42pm 20 26 mph 1023.3mb 53f
8:36pm 21 28 mph 1023.7mb 53f
8:30pm 17 23 mph 1023.6mb 53f
8:24pm 20 25 mph 1023.3mb 53f
8:18pm 20 26 mph 1023.4mb 53f
8:12pm 16 21 mph 1023.6mb 54f
8:06pm 18 23 mph 1023.4mb 53f
8:00pm 23 30 mph 1023.1mb 53f
7:54pm 22 30 mph 1023.2mb 53f
7:48pm 20 24 mph 1023.2mb 53f
7:42pm 20 26 mph 1023mb 54f
7:36pm 21 28 mph 1023.1mb 55f
7:00pm 22 30 mph 1022.7mb 55f
6:54pm 21 28 mph 1022.5mb 55f
6:48pm 21 29 mph 1022.4mb 55f
6:42pm 22 29 mph 1022mb 55f
6:36pm 17 22 mph 1021.9mb 55f
6:30pm 17 23 mph 1021.8mb 55f
6:24pm 20 28 mph 1021.7mb 56f
6:18pm 23 30 mph 1021.7mb 56f
6:12pm 22 28 mph 1021.7mb 56f
6:06pm 22 29 mph 1021.4mb 56f
6:00pm 23 31 mph 1021.1mb 56f
5:54pm 21 28 mph 1021.1mb 56f
5:48pm 21 28 mph 1021mb 56f
5:42pm 21 30 mph 1021mb 56f
5:36pm 21 26 mph 1020.6mb 56f
5:30pm 21 28 mph 1020.6mb 56f
5:24pm 21 26 mph 1020.6mb 56f
5:18pm 22 29 mph 1020.3mb 57f
5:12pm 21 28 mph 1020.4mb 58f
5:06pm 23 30 mph 1020.1mb 58f
5:00pm 28 34 mph 1019.8mb 58f
4:54pm 24 34 mph 1019.5mb 59f
4:48pm 22 32 mph 1019.5mb 61f
4:42pm 2 6 mph 1018.8mb 68f
4:36pm 3 9 mph 1018.4mb 68f
4:30pm 5 9 mph 1018.4mb 68f
4:24pm 6 11 mph 1018.4mb 68f
4:18pm 5 8 mph 1018.4mb 68f
4:12pm 5 10 mph 1018.4mb 68f
4:06pm 5 9 mph 1018.4mb 69f
4:00pm 5 8 mph 1018.4mb 69f
3:54pm 3 8 mph 1018.5mb 68f
3:48pm 5 10 mph 1018.5mb 69f
3:42pm 5 10 mph 1018.5mb 69f
3:36pm 3 8 mph 1018.5mb 70f
3:30pm 5 8 mph 1018.5mb 70f
3:24pm 5 9 mph 1018.5mb 70f
3:18pm 3 8 mph 1018.5mb 71f
3:12pm 3 8 mph 1018.5mb 71f
3:06pm 5 9 mph 1018.5mb 71f
3:00pm 3 8 mph 1018.5mb 70f
2:54pm 5 7 mph 1018.6mb 70f
2:48pm 6 11 mph 1018.6mb 70f
2:42pm 5 10 mph 1018.6mb 70f
2:36pm 5 8 mph 1018.6mb 70f
2:30pm 6 10 mph 1018.7mb 70f
2:24pm 7 11 mph 1018.8mb 70f
2:18pm 6 11 mph 1018.7mb 71f
2:12pm 6 15 mph 1018.6mb 71f
2:06pm 6 10 mph 1018.6mb 71f
2:00pm 5 11 mph 1018.6mb 71f
1:54pm 6 10 mph 1018.6mb 71f
1:48pm 7 15 mph 1018.5mb 71f
1:42pm 7 16 mph 1018.6mb 71f
1:36pm 7 16 mph 1018.6mb 71f
1:30pm 8 15 mph 1018.7mb 71f
1:24pm 8 18 mph 1018.7mb 71f
1:18pm 7 16 mph 1018.6mb 71f
1:12pm 8 16 mph 1018.6mb 70f
1:06pm 9 18 mph 1018.6mb 71f
1:00pm 10 17 mph 1018.6mb 72f
12:54pm 6 14 mph 1018.6mb 72f
12:48pm 9 20 mph 1018.7mb 72f
12:42pm 9 17 mph 1018.7mb 72f
12:36pm 7 16 mph 1018.7mb 73f
12:30pm 7 16 mph 1018.7mb 71f
12:24pm 8 16 mph 1018.7mb 70f
12:18pm 8 15 mph 1018.7mb 71f
12:12pm 6 11 mph 1018.8mb 72f
12:06pm 8 14 mph 1018.8mb 71f
12:00pm 7 13 mph 1018.8mb 71f
11:54am 7 14 mph 1018.9mb 70f
11:48am 7 13 mph 1018.8mb 70f
11:42am 6 11 mph 1018.9mb 71f
11:36am 7 13 mph 1018.9mb 71f
11:30am 6 16 mph 1018.8mb 71f
11:24am 8 14 mph 1018.8mb 71f
11:18am 7 14 mph 1018.9mb 71f
11:12am 6 11 mph 1018.8mb 71f
11:06am 6 13 mph 1018.8mb 71f
11:00am 3 10 mph 1018.8mb 72f
10:54am 8 15 mph 1018.9mb 72f
10:48am 6 13 mph 1018.9mb 72f
10:42am 5 11 mph 1018.8mb 72f
10:36am 7 15 mph 1018.8mb 71f
10:30am 7 15 mph 1018.8mb 71f
10:24am 5 8 mph 1018.8mb 72f
10:18am 6 10 mph 1018.8mb 73f
10:12am 6 10 mph 1018.8mb 72f
10:06am 5 11 mph 1018.8mb 71f
10:00am 6 10 mph 1018.8mb 71f
9:54am 6 14 mph 1018.9mb 71f
9:48am 6 11 mph 1018.9mb 70f
9:42am 6 10 mph 1019mb 69f
9:36am 6 10 mph 1019mb 69f
9:30am 6 11 mph 1019mb 69f
9:24am 6 11 mph 1019mb 69f
9:18am 6 10 mph 1019mb 68f
9:12am 6 11 mph 1019mb 69f
9:06am 6 13 mph 1019.1mb 68f
9:00am 7 10 mph 1019mb 68f
8:54am 6 13 mph 1019mb 68f
8:48am 7 13 mph 1019mb 68f
8:42am 7 14 mph 1019mb 68f
8:36am 6 13 mph 1018.9mb 69f
8:30am 7 13 mph 1018.9mb 69f
8:24am 7 15 mph 1018.9mb 68f
8:18am 7 13 mph 1018.9mb 68f
8:12am 6 10 mph 1018.9mb 68f
8:06am 6 10 mph 1018.9mb 67f
8:00am 5 9 mph 1018.9mb 67f
7:54am 5 9 mph 1018.9mb 66f
7:48am 6 10 mph 1018.9mb 65f
7:42am 6 10 mph 1018.9mb 65f
7:36am 6 10 mph 1018.9mb 65f
7:30am 6 13 mph 1018.9mb 65f
7:24am 6 13 mph 1018.9mb 66f
7:18am 5 10 mph 1018.9mb 65f
7:12am 6 9 mph 1018.9mb 65f
7:06am 6 11 mph 1018.9mb 64f
7:00am 6 11 mph 1018.9mb 64f
6:54am 6 10 mph 1018.9mb 64f
6:48am 6 9 mph 1018.9mb 64f
6:42am 6 11 mph 1018.8mb 64f
6:36am 6 10 mph 1018.8mb 64f
6:30am 6 11 mph 1018.8mb 63f
6:24am 6 10 mph 1018.8mb 63f
6:18am 6 11 mph 1018.8mb 63f
6:12am 6 10 mph 1018.8mb 63f
6:06am 7 13 mph 1018.8mb 63f
6:00am 6 14 mph 1018.8mb 63f
5:54am 6 13 mph 1018.8mb 63f
5:48am 5 10 mph 1018.8mb 63f
5:42am 6 11 mph 1018.8mb 63f
5:36am 6 10 mph 1018.8mb 63f
5:30am 6 13 mph 1018.7mb 62f
5:24am 5 10 mph 1018.7mb 62f
5:18am 5 9 mph 1018.8mb 63f
5:12am 3 6 mph 1018.8mb 64f
5:06am 5 8 mph 1018.8mb 64f
5:00am 5 7 mph 1018.9mb 64f
4:54am 3 7 mph 1019mb 64f
4:48am 3 7 mph 1019mb 64f
4:42am 5 7 mph 1019mb 64f
4:36am 3 7 mph 1019.1mb 64f
4:30am 3 7 mph 1019mb 64f
4:24am 6 8 mph 1019mb 65f
4:18am 5 9 mph 1018.9mb 64f
4:12am 5 8 mph 1018.9mb 63f
4:06am 5 9 mph 1018.9mb 63f
4:00am 5 8 mph 1018.8mb 65f
3:54am 6 9 mph 1018.9mb 65f
3:48am 7 11 mph 1018.9mb 65f
3:42am 7 10 mph 1018.9mb 65f
3:36am 6 10 mph 1018.9mb 65f
3:30am 7 11 mph 1018.8mb 65f
3:24am 6 13 mph 1018.8mb 65f
3:18am 6 10 mph 1018.8mb 65f
3:12am 6 10 mph 1018.8mb 65f
3:06am 7 14 mph 1018.8mb 65f
3:00am 8 14 mph 1018.9mb 65f
2:54am 8 14 mph 1018.8mb 65f
2:48am 8 13 mph 1018.9mb 65f
2:42am 7 13 mph 1019mb 65f
2:36am 7 13 mph 1019mb 65f
2:30am 7 13 mph 1019mb 65f
2:24am 8 13 mph 1019.1mb 65f
2:18am 8 14 mph 1019.1mb 65f
2:12am 7 11 mph 1019mb 65f
2:06am 7 13 mph 1019.1mb 65f
2:00am 6 11 mph 1019.2mb 65f
1:54am 7 13 mph 1019.2mb 65f
1:48am 7 10 mph 1019.2mb 64f
1:42am 6 10 mph 1019.2mb 64f
1:36am 7 10 mph 1019.4mb 65f
1:30am 7 13 mph 1019.5mb 65f
1:24am 8 14 mph 1019.3mb 65f
1:18am 7 13 mph 1019.2mb 65f
1:12am 8 14 mph 1019.3mb 65f
1:06am 7 13 mph 1019.4mb 65f
1:00am 7 14 mph 1019.4mb 65f
12:54am 7 11 mph 1019.4mb 65f
12:48am 6 13 mph 1019.5mb 65f
12:42am 6 9 mph 1019.5mb 65f
12:36am 6 9 mph 1019.8mb 65f
12:30am 5 8 mph 1019.8mb 65f
12:24am 5 8 mph 1019.9mb 65f
12:18am 6 9 mph 1020mb 65f
12:12am 7 10 mph 1020.1mb 65f
12:06am 7 13 mph 1020.1mb 65f
12:00am 8 11 mph 1020mb 65f
Sat 05/30 11:54pm 7 10 mph 1020mb 65f
11:48pm 7 13 mph 1020mb 65f
11:42pm 7 13 mph 1019.9mb 65f
11:36pm 7 11 mph 1019.9mb 65f
11:30pm 8 14 mph 1019.8mb 65f
11:24pm 8 11 mph 1019.8mb 66f
11:18pm 7 14 mph 1019.8mb 66f
11:12pm 8 15 mph 1019.8mb 66f
11:06pm 7 17 mph 1019.8mb 66f
11:00pm 6 10 mph 1020mb 65f
10:54pm 8 14 mph 1020mb 66f
10:48pm 7 11 mph 1020mb 66f
10:42pm 8 14 mph 1020mb 66f
10:36pm 7 11 mph 1019.9mb 66f
10:30pm 7 10 mph 1020mb 65f
10:24pm 7 13 mph 1020.1mb 65f
10:18pm 7 11 mph 1020mb 66f
10:12pm 7 14 mph 1020mb 65f
10:06pm 7 13 mph 1020mb 65f
10:00pm 7 10 mph 1019.9mb 65f
9:54pm 8 14 mph 1019.9mb 65f
9:48pm 7 14 mph 1019.8mb 65f
9:42pm 8 13 mph 1019.8mb 65f
9:36pm 8 15 mph 1019.9mb 65f
9:30pm 7 10 mph 1019.9mb 65f
9:24pm 7 11 mph 1019.8mb 65f
9:18pm 7 11 mph 1019.8mb 65f
9:12pm 7 13 mph 1019.8mb 65f
9:06pm 8 13 mph 1019.7mb 66f
9:00pm 7 13 mph 1019.6mb 66f
8:54pm 7 10 mph 1019.6mb 66f
8:48pm 7 13 mph 1019.6mb 66f
8:42pm 7 14 mph 1019.6mb 66f
8:36pm 7 13 mph 1019.6mb 66f
8:30pm 7 11 mph 1019.6mb 66f
8:24pm 7 15 mph 1019.6mb 66f
8:18pm 8 15 mph 1019.6mb 67f
8:12pm 8 14 mph 1019.6mb 67f
8:06pm 9 16 mph 1019.7mb 67f
8:00pm 8 16 mph 1019.8mb 67f
7:54pm 8 14 mph 1019.8mb 67f
7:48pm 8 15 mph 1019.8mb 68f
7:42pm 9 15 mph 1019.8mb 68f
7:36pm 8 14 mph 1020mb 69f
7:30pm 8 16 mph 1020mb 69f
7:24pm 7 14 mph 1020mb 69f
7:18pm 10 21 mph 1020mb 69f
7:12pm 8 16 mph 1020mb 69f
7:06pm 8 15 mph 1020mb 69f
7:00pm 9 17 mph 1020.1mb 70f
6:54pm 10 15 mph 1020mb 69f
6:48pm 9 17 mph 1020.1mb 70f
6:42pm 9 16 mph 1020.1mb 70f
6:36pm 9 16 mph 1020.1mb 71f
6:30pm 8 15 mph 1020.1mb 71f
6:24pm 8 15 mph 1020.1mb 71f
6:18pm 9 17 mph 1020.1mb 71f
6:12pm 8 16 mph 1020.2mb 71f
6:06pm 9 16 mph 1020.2mb 71f
6:00pm 9 17 mph 1020.1mb 72f
5:54pm 9 17 mph 1020.2mb 71f
5:48pm 9 17 mph 1020.1mb 72f
5:42pm 11 20 mph 1020.2mb 73f
5:36pm 9 15 mph 1020.2mb 73f
5:30pm 9 17 mph 1020.3mb 72f
5:24pm 9 20 mph 1020.3mb 73f
5:18pm 9 15 mph 1020.3mb 73f
5:12pm 11 18 mph 1020.3mb 73f
5:06pm 10 17 mph 1020.3mb 73f
5:00pm 10 17 mph 1020.5mb 73f
4:54pm 10 18 mph 1020.5mb 73f
4:48pm 10 22 mph 1020.5mb 73f
4:42pm 10 16 mph 1020.5mb 73f
4:36pm 10 21 mph 1020.6mb 73f
4:30pm 9 15 mph 1020.5mb 73f
4:24pm 9 16 mph 1020.6mb 74f
4:18pm 8 15 mph 1020.6mb 74f
4:12pm 8 18 mph 1020.7mb 74f
4:06pm 7 15 mph 1020.7mb 73f
4:00pm 8 16 mph 1020.9mb 71f
3:54pm 8 17 mph 1020.9mb 71f
3:48pm 9 18 mph 1021mb 72f
3:42pm 8 16 mph 1021mb 72f
3:36pm 10 21 mph 1021mb 72f
3:30pm 7 14 mph 1021.2mb 71f
3:24pm 8 18 mph 1021.3mb 71f
3:18pm 9 21 mph 1021.4mb 71f
3:12pm 9 21 mph 1021.4mb 71f
3:06pm 9 21 mph 1021.3mb 71f
3:00pm 8 16 mph 1021.4mb 72f
2:54pm 8 16 mph 1021.4mb 73f
2:48pm 8 15 mph 1021.5mb 73f
2:42pm 8 14 mph 1021.5mb 73f
2:36pm 8 16 mph 1021.6mb 73f
2:30pm 7 18 mph 1021.7mb 73f
2:24pm 8 18 mph 1021.7mb 73f
2:18pm 10 20 mph 1021.8mb 73f
2:12pm 9 16 mph 1021.9mb 72f
2:06pm 9 16 mph 1021.9mb 73f
2:00pm 7 16 mph 1022mb 73f
1:54pm 7 15 mph 1022mb 72f
1:48pm 9 18 mph 1022mb 71f
1:42pm 8 18 mph 1022.1mb 72f
1:36pm 8 16 mph 1022.1mb 72f
1:30pm 8 16 mph 1022.1mb 71f
1:24pm 9 17 mph 1022.2mb 71f
1:18pm 8 17 mph 1022.3mb 71f
1:12pm 8 17 mph 1022.3mb 71f
1:06pm 7 15 mph 1022.3mb 71f
1:00pm 8 18 mph 1022.5mb 71f
12:54pm 8 15 mph 1022.5mb 71f
12:48pm 8 17 mph 1022.5mb 70f
12:42pm 10 17 mph 1022.5mb 71f
12:36pm 8 16 mph 1022.6mb 71f
12:30pm 9 20 mph 1022.6mb 71f
12:24pm 9 17 mph 1022.7mb 72f
12:18pm 9 16 mph 1022.8mb 71f
12:12pm 9 18 mph 1022.8mb 71f
12:06pm 10 17 mph 1022.9mb 71f
12:00pm 6 13 mph 1023mb 71f
11:54am 6 13 mph 1023.2mb 71f
11:48am 7 17 mph 1023.2mb 71f
11:42am 7 14 mph 1023.3mb 71f
11:36am 6 11 mph 1023.4mb 72f
11:30am 6 13 mph 1023.4mb 72f
11:24am 8 16 mph 1023.5mb 70f
11:18am 6 11 mph 1023.5mb 71f
11:12am 6 10 mph 1023.6mb 71f
11:06am 6 11 mph 1023.7mb 71f
11:00am 5 8 mph 1023.6mb 71f
10:54am 6 13 mph 1023.6mb 71f
10:48am 6 11 mph 1023.7mb 70f
10:42am 6 10 mph 1023.8mb 69f
10:36am 5 11 mph 1023.9mb 69f
10:30am 6 10 mph 1023.9mb 67f
10:24am 5 9 mph 1023.9mb 67f
10:18am 6 9 mph 1024mb 66f
10:12am 8 15 mph 1024mb 66f
10:06am 5 10 mph 1024mb 66f
10:00am 5 10 mph 1024mb 66f
9:54am 3 9 mph 1024.1mb 65f
9:48am 6 13 mph 1024.1mb 63f
9:42am 6 13 mph 1024.2mb 64f
9:36am 8 14 mph 1024.2mb 63f
9:30am 7 14 mph 1024.2mb 62f
9:24am 5 10 mph 1024.3mb 62f
9:18am 6 10 mph 1024.3mb 62f
9:12am 6 9 mph 1024.3mb 62f
9:06am 5 10 mph 1024.2mb 61f
9:00am 6 10 mph 1024.2mb 61f
8:54am 6 11 mph 1024.2mb 60f
8:48am 3 8 mph 1024.2mb 61f
8:42am 5 10 mph 1024.2mb 60f
8:36am 6 9 mph 1024.3mb 60f
8:30am 3 9 mph 1024.3mb 60f
8:24am 6 11 mph 1024.3mb 59f
8:18am 6 9 mph 1024.3mb 59f
8:12am 5 9 mph 1024.4mb 60f
8:06am 5 8 mph 1024.3mb 60f
8:00am 3 9 mph 1024.3mb 60f
7:54am 3 6 mph 1024.4mb 60f
7:48am 3 8 mph 1024.4mb 60f
7:42am 3 9 mph 1024.4mb 60f
7:36am 3 8 mph 1024.5mb 60f
7:30am 5 8 mph 1024.6mb 60f
7:24am 3 8 mph 1024.6mb 59f
7:18am 3 8 mph 1024.5mb 59f
7:12am 5 8 mph 1024.6mb 59f
7:06am 3 6 mph 1024.5mb 59f
7:00am 3 8 mph 1024.5mb 59f
6:54am 5 8 mph 1024.6mb 59f
6:48am 3 7 mph 1024.6mb 59f
6:42am 3 6 mph 1024.5mb 59f
6:36am 3 9 mph 1024.5mb 59f
6:30am 3 8 mph 1024.5mb 58f
6:24am 5 8 mph 1024.5mb 58f
6:18am 3 10 mph 1024.5mb 58f
6:12am 5 9 mph 1024.4mb 58f
6:06am 6 8 mph 1024.4mb 58f
6:00am 3 8 mph 1024.4mb 58f
5:54am 3 8 mph 1024.3mb 58f
5:48am 3 7 mph 1024.2mb 58f
5:42am 5 8 mph 1024.2mb 58f
5:36am 5 8 mph 1024.1mb 58f
5:30am 3 7 mph 1024.1mb 58f
5:24am 3 7 mph 1023.9mb 58f
5:18am 5 9 mph - 58f
5:12am 3 6 mph - 58f
5:06am 5 8 mph - 58f
5:00am 3 8 mph 1023.6mb 58f
4:54am 3 7 mph 1023.5mb 58f
4:48am 3 7 mph 1023.5mb 58f
4:42am 3 6 mph 1023.5mb 58f
4:36am 3 6 mph 1023.5mb 59f
4:30am 3 6 mph 1023.6mb 59f
4:24am 2 6 mph 1023.6mb 59f
4:18am 3 7 mph 1023.6mb 58f
4:12am 2 5 mph 1023.6mb 58f
4:06am 3 6 mph 1023.6mb 58f
4:00am 3 9 mph 1023.6mb 58f
3:54am 3 6 mph 1023.6mb 58f
3:48am 5 7 mph 1023.6mb 58f
3:42am 3 7 mph 1023.6mb 58f
3:36am 3 6 mph 1023.6mb 58f
3:30am 5 9 mph 1023.6mb 58f
3:24am 3 7 mph 1023.5mb 58f
3:18am 3 7 mph 1023.6mb 58f
3:12am 3 6 mph 1023.7mb 58f
3:06am 3 7 mph 1023.7mb 58f
3:00am 2 5 mph 1023.7mb 58f
2:54am 5 8 mph 1023.7mb 58f
2:48am 3 7 mph - 58f
2:42am 3 7 mph - 58f
2:36am 3 6 mph - 58f
2:30am 3 7 mph 1023.8mb 58f
2:24am 3 8 mph 1023.8mb 58f
2:18am 5 8 mph - 58f
2:12am 3 6 mph - 58f
2:06am 3 8 mph - 58f
2:00am 3 7 mph 1023.9mb 58f
1:54am 5 8 mph 1024mb 58f
1:48am 3 7 mph 1024.1mb 58f
1:42am 3 7 mph 1024.1mb 58f
1:36am 3 7 mph 1024.1mb 58f
1:30am 3 7 mph 1024.1mb 58f
1:24am 3 7 mph 1024mb 59f
1:18am 5 8 mph 1024mb 58f
1:12am 3 7 mph 1024.1mb 59f
1:06am 3 6 mph 1024.2mb 59f
1:00am 2 5 mph 1024.3mb 59f
12:54am 3 7 mph 1024.3mb 59f
12:48am 3 6 mph 1024.3mb 59f
12:42am 3 6 mph 1024.5mb 59f
12:36am 3 6 mph 1024.5mb 59f
12:30am 5 8 mph 1024.5mb 59f
12:24am 5 8 mph 1024.5mb 59f
12:18am 3 8 mph 1024.6mb 59f
12:12am 3 6 mph 1024.7mb 60f
12:06am 3 7 mph 1024.6mb 60f
12:00am 3 7 mph 1024.6mb 60f
Fri 05/29 11:54pm 5 7 mph 1024.7mb 60f
11:48pm 3 5 mph 1024.7mb 60f
11:42pm 3 6 mph 1024.7mb 60f
11:36pm 2 3 mph 1024.8mb 60f
11:30pm 2 3 mph 1024.8mb 60f
11:24pm 2 5 mph 1024.9mb 60f
11:18pm 3 5 mph 1024.8mb 60f
11:12pm 3 5 mph 1024.9mb 60f
11:06pm 2 5 mph 1025mb 60f
11:00pm 2 5 mph 1025mb 60f
10:54pm 2 5 mph 1025mb 60f
10:48pm 2
mph
1025.1mb 60f
10:42pm 2 3 mph 1025.1mb 59f
10:36pm 2 3 mph 1025.2mb 59f
10:30pm 2 3 mph 1025.2mb 60f
10:24pm  -  1 mph 1025.2mb 59f
10:18pm  -  1 mph 1025.2mb 60f
10:12pm  -  1 mph 1025.2mb 60f
10:06pm  -  2 mph 1025.2mb 61f
10:00pm 1
mph
1025.3mb 60f
9:54pm 1 2 mph 1025.2mb 60f
9:48pm  -  1 mph 1025.3mb 61f
9:42pm  -  1 mph 1025.2mb 61f
9:36pm  -  1 mph 1025.2mb 61f
9:30pm  -  1 mph 1025.2mb -
9:24pm  -  1 mph 1025.1mb -
9:18pm  -  2 mph 1025.1mb 61f
9:12pm 1 2 mph 1025mb 62f
9:06pm 1 2 mph 1025mb 62f
9:00pm 1 2 mph 1025mb 62f
8:54pm 2 3 mph 1025mb 62f
8:48pm 2 5 mph 1025.1mb 62f
8:42pm 2 6 mph 1025mb 62f
8:36pm 2 5 mph 1025.1mb 62f
8:30pm 2 3 mph 1025mb 62f
8:24pm 2 3 mph 1025mb 62f
8:18pm 2 5 mph 1025mb 62f
8:12pm 3 6 mph 1025mb 62f
8:06pm 2 5 mph 1025.3mb 62f
8:00pm 3 8 mph 1025.3mb 62f
7:54pm 3 6 mph 1025.1mb 63f
7:48pm 3 7 mph 1025.1mb 63f
7:42pm 3 7 mph 1025.2mb 63f
7:36pm 3 7 mph 1025.2mb 63f
7:30pm 5 8 mph 1025.1mb 63f
7:24pm 3 7 mph 1025.1mb 64f
7:18pm 5 9 mph 1025.1mb 64f
7:12pm 5 8 mph 1025.1mb 64f
7:06pm 5 9 mph 1025.2mb 64f
7:00pm 5 8 mph 1025.2mb 64f
6:54pm 5 8 mph 1025.1mb 64f
6:48pm 5 10 mph 1025.2mb 65f
6:42pm 5 7 mph 1025.1mb 65f
6:36pm 3 9 mph 1025mb 65f
6:30pm 5 8 mph 1025mb 66f
6:24pm 5 11 mph 1024.9mb 66f
6:18pm 5 10 mph 1024.8mb 66f
6:12pm 6 14 mph 1024.8mb 66f
6:06pm 5 11 mph 1024.7mb 67f
6:00pm 6 11 mph 1024.8mb 68f
5:54pm 6 13 mph 1024.8mb 68f
5:48pm 7 16 mph 1024.9mb 68f
5:42pm 7 14 mph 1024.9mb 68f
5:36pm 8 14 mph 1024.9mb 68f
5:30pm 8 13 mph 1025mb 68f
5:24pm 8 14 mph 1024.9mb 68f
5:18pm 5 13 mph 1025mb 69f
5:12pm 6 11 mph 1025mb 69f
5:06pm 7 14 mph 1025mb 69f
5:00pm 7 13 mph 1025.1mb 69f
4:54pm 8 15 mph 1025.1mb 69f
4:48pm 8 13 mph 1025.2mb 69f
4:30pm  -  mph 1025.1mb -
4:24pm  -  mph 1025.1mb -
4:18pm  -  mph 1025.1mb -
4:12pm  -  mph 1025.2mb -
4:06pm  -  mph 1025.2mb -
4:00pm  -  mph 1025.3mb -
3:54pm  -  mph 1025.4mb -
3:48pm  -  mph 1025.3mb -
3:30pm 7 13 mph 1025.3mb 71f
3:24pm 8 15 mph 1025.3mb 72f
3:18pm 8 17 mph 1025.3mb 72f
3:12pm 7 16 mph 1025.3mb 72f
3:06pm 5 10 mph 1025.3mb 73f
3:00pm 6 11 mph 1025.3mb 74f
2:54pm 7 13 mph 1025.3mb 73f
2:48pm 9 16 mph 1025.4mb 73f
2:42pm 7 15 mph 1025.5mb 74f
2:36pm 8 15 mph 1025.5mb 73f
2:30pm 8 14 mph 1025.5mb 73f
2:24pm 6 13 mph 1025.4mb 74f
2:18pm 6 11 mph 1025.5mb 75f
2:12pm 6 14 mph 1025.5mb 75f
2:06pm 6 13 mph 1025.4mb 75f
2:00pm 6 10 mph 1025.4mb 75f
1:54pm 6 9 mph 1025.5mb 76f
1:48pm 5 9 mph 1025.5mb 76f
1:42pm 7 14 mph 1025.6mb 74f
1:36pm 8 13 mph 1025.7mb 74f
1:30pm 6 11 mph 1025.8mb 75f
1:24pm 5 8 mph 1025.7mb 76f
1:18pm 6 11 mph 1025.7mb 75f
1:12pm 7 10 mph 1025.7mb 75f
1:06pm 7 11 mph 1025.7mb 74f
1:00pm 5 9 mph 1025.7mb 76f
12:54pm 6 9 mph 1025.7mb 76f
12:48pm 5 8 mph 1025.7mb 77f
12:42pm 6 8 mph 1025.7mb 75f
12:36pm 5 9 mph 1025.8mb 76f
12:30pm 6 10 mph 1025.8mb 76f
12:24pm 2 7 mph 1025.8mb 78f
12:18pm 1 2 mph 1025.8mb 77f